sensor_id;sensor_type;location;lat;lon;timestamp;P1;durP1;ratioP1;P2;durP2;ratioP2
21543;SDS011;10933;50.754;11.508;2022-07-26T00:01:31;2.47;;;1.80;;
21543;SDS011;10933;50.754;11.508;2022-07-26T00:03:56;3.72;;;1.98;;
21543;SDS011;10933;50.754;11.508;2022-07-26T00:06:23;1.65;;;1.55;;
21543;SDS011;10933;50.754;11.508;2022-07-26T00:08:50;2.00;;;1.80;;
21543;SDS011;10933;50.754;11.508;2022-07-26T00:11:16;1.52;;;1.42;;
21543;SDS011;10933;50.754;11.508;2022-07-26T00:13:43;4.30;;;2.10;;
21543;SDS011;10933;50.754;11.508;2022-07-26T00:16:09;2.17;;;1.98;;
21543;SDS011;10933;50.754;11.508;2022-07-26T00:18:36;2.15;;;1.95;;
21543;SDS011;10933;50.754;11.508;2022-07-26T00:21:02;3.00;;;1.77;;
21543;SDS011;10933;50.754;11.508;2022-07-26T00:23:29;5.32;;;1.85;;
21543;SDS011;10933;50.754;11.508;2022-07-26T00:25:55;3.35;;;2.10;;
21543;SDS011;10933;50.754;11.508;2022-07-26T00:28:20;2.25;;;2.05;;
21543;SDS011;10933;50.754;11.508;2022-07-26T00:30:47;2.00;;;1.88;;
21543;SDS011;10933;50.754;11.508;2022-07-26T00:33:12;2.85;;;2.13;;
21543;SDS011;10933;50.754;11.508;2022-07-26T00:35:38;4.38;;;2.00;;
21543;SDS011;10933;50.754;11.508;2022-07-26T00:38:04;4.00;;;2.05;;
21543;SDS011;10933;50.754;11.508;2022-07-26T00:40:31;1.70;;;1.50;;
21543;SDS011;10933;50.754;11.508;2022-07-26T00:42:57;1.92;;;1.80;;
21543;SDS011;10933;50.754;11.508;2022-07-26T00:45:22;3.67;;;2.00;;
21543;SDS011;10933;50.754;11.508;2022-07-26T00:47:49;2.40;;;1.77;;
21543;SDS011;10933;50.754;11.508;2022-07-26T00:50:15;2.85;;;1.88;;
21543;SDS011;10933;50.754;11.508;2022-07-26T00:52:44;2.30;;;1.77;;
21543;SDS011;10933;50.754;11.508;2022-07-26T00:55:12;2.65;;;2.00;;
21543;SDS011;10933;50.754;11.508;2022-07-26T00:57:41;2.65;;;1.90;;
21543;SDS011;10933;50.754;11.508;2022-07-26T01:00:08;3.67;;;1.50;;
21543;SDS011;10933;50.754;11.508;2022-07-26T01:02:41;3.55;;;1.90;;
21543;SDS011;10933;50.754;11.508;2022-07-26T01:05:08;2.05;;;1.77;;
21543;SDS011;10933;50.754;11.508;2022-07-26T01:07:34;2.70;;;2.30;;
21543;SDS011;10933;50.754;11.508;2022-07-26T01:10:03;4.07;;;2.15;;
21543;SDS011;10933;50.754;11.508;2022-07-26T01:12:34;2.55;;;2.00;;
21543;SDS011;10933;50.754;11.508;2022-07-26T01:15:00;2.13;;;1.92;;
21543;SDS011;10933;50.754;11.508;2022-07-26T01:17:26;2.03;;;1.90;;
21543;SDS011;10933;50.754;11.508;2022-07-26T01:19:52;2.47;;;2.00;;
21543;SDS011;10933;50.754;11.508;2022-07-26T01:22:17;3.85;;;2.53;;
21543;SDS011;10933;50.754;11.508;2022-07-26T01:24:43;2.67;;;2.20;;
21543;SDS011;10933;50.754;11.508;2022-07-26T01:27:09;2.30;;;2.10;;
21543;SDS011;10933;50.754;11.508;2022-07-26T01:29:35;2.00;;;1.90;;
21543;SDS011;10933;50.754;11.508;2022-07-26T01:32:00;3.67;;;2.00;;
21543;SDS011;10933;50.754;11.508;2022-07-26T01:34:27;4.60;;;1.77;;
21543;SDS011;10933;50.754;11.508;2022-07-26T01:36:53;5.38;;;2.22;;
21543;SDS011;10933;50.754;11.508;2022-07-26T01:39:20;2.03;;;1.80;;
21543;SDS011;10933;50.754;11.508;2022-07-26T01:41:46;3.33;;;2.15;;
21543;SDS011;10933;50.754;11.508;2022-07-26T01:44:12;2.10;;;1.90;;
21543;SDS011;10933;50.754;11.508;2022-07-26T01:46:38;5.82;;;2.10;;
21543;SDS011;10933;50.754;11.508;2022-07-26T01:49:04;2.63;;;2.00;;
21543;SDS011;10933;50.754;11.508;2022-07-26T01:51:32;1.95;;;1.85;;
21543;SDS011;10933;50.754;11.508;2022-07-26T01:53:59;2.38;;;2.13;;
21543;SDS011;10933;50.754;11.508;2022-07-26T01:56:25;2.30;;;2.10;;
21543;SDS011;10933;50.754;11.508;2022-07-26T01:58:51;3.00;;;2.70;;
21543;SDS011;10933;50.754;11.508;2022-07-26T02:01:17;3.03;;;2.83;;
21543;SDS011;10933;50.754;11.508;2022-07-26T02:03:43;4.10;;;3.80;;
21543;SDS011;10933;50.754;11.508;2022-07-26T02:06:09;2.65;;;2.45;;
21543;SDS011;10933;50.754;11.508;2022-07-26T02:08:34;3.60;;;3.30;;
21543;SDS011;10933;50.754;11.508;2022-07-26T02:11:01;2.80;;;2.60;;
21543;SDS011;10933;50.754;11.508;2022-07-26T02:13:28;2.92;;;2.47;;
21543;SDS011;10933;50.754;11.508;2022-07-26T02:15:56;3.10;;;2.60;;
21543;SDS011;10933;50.754;11.508;2022-07-26T02:18:26;2.95;;;2.72;;
21543;SDS011;10933;50.754;11.508;2022-07-26T02:20:53;2.78;;;2.58;;
21543;SDS011;10933;50.754;11.508;2022-07-26T02:23:21;3.70;;;2.83;;
21543;SDS011;10933;50.754;11.508;2022-07-26T02:25:48;5.20;;;2.60;;
21543;SDS011;10933;50.754;11.508;2022-07-26T02:28:15;3.38;;;2.38;;
21543;SDS011;10933;50.754;11.508;2022-07-26T02:30:42;2.80;;;2.60;;
21543;SDS011;10933;50.754;11.508;2022-07-26T02:33:09;7.07;;;2.25;;
21543;SDS011;10933;50.754;11.508;2022-07-26T02:35:35;6.38;;;2.70;;
21543;SDS011;10933;50.754;11.508;2022-07-26T02:38:02;5.13;;;2.35;;
21543;SDS011;10933;50.754;11.508;2022-07-26T02:40:31;2.92;;;2.33;;
21543;SDS011;10933;50.754;11.508;2022-07-26T02:42:58;2.70;;;2.28;;
21543;SDS011;10933;50.754;11.508;2022-07-26T02:45:24;3.65;;;2.47;;
21543;SDS011;10933;50.754;11.508;2022-07-26T02:47:51;5.40;;;2.45;;
21543;SDS011;10933;50.754;11.508;2022-07-26T02:50:19;3.00;;;2.10;;
21543;SDS011;10933;50.754;11.508;2022-07-26T02:52:47;3.15;;;2.85;;
21543;SDS011;10933;50.754;11.508;2022-07-26T02:55:15;3.00;;;2.80;;
21543;SDS011;10933;50.754;11.508;2022-07-26T02:57:43;2.88;;;2.67;;
21543;SDS011;10933;50.754;11.508;2022-07-26T03:00:10;3.70;;;2.53;;
21543;SDS011;10933;50.754;11.508;2022-07-26T03:02:38;3.00;;;2.80;;
21543;SDS011;10933;50.754;11.508;2022-07-26T03:05:05;2.90;;;2.70;;
21543;SDS011;10933;50.754;11.508;2022-07-26T03:07:32;5.43;;;2.90;;
21543;SDS011;10933;50.754;11.508;2022-07-26T03:09:58;4.05;;;2.55;;
21543;SDS011;10933;50.754;11.508;2022-07-26T03:12:24;3.53;;;2.88;;
21543;SDS011;10933;50.754;11.508;2022-07-26T03:14:51;3.20;;;2.92;;
21543;SDS011;10933;50.754;11.508;2022-07-26T03:17:17;3.13;;;2.83;;
21543;SDS011;10933;50.754;11.508;2022-07-26T03:19:43;3.22;;;2.95;;
21543;SDS011;10933;50.754;11.508;2022-07-26T03:22:09;3.70;;;2.35;;
21543;SDS011;10933;50.754;11.508;2022-07-26T03:24:35;4.57;;;2.90;;
21543;SDS011;10933;50.754;11.508;2022-07-26T03:27:01;3.53;;;2.58;;
21543;SDS011;10933;50.754;11.508;2022-07-26T03:29:28;4.78;;;3.15;;
21543;SDS011;10933;50.754;11.508;2022-07-26T03:31:54;4.78;;;3.40;;
21543;SDS011;10933;50.754;11.508;2022-07-26T03:34:20;3.10;;;2.90;;
21543;SDS011;10933;50.754;11.508;2022-07-26T03:36:45;4.43;;;3.35;;
21543;SDS011;10933;50.754;11.508;2022-07-26T03:39:11;4.20;;;3.22;;
21543;SDS011;10933;50.754;11.508;2022-07-26T03:41:37;4.78;;;3.05;;
21543;SDS011;10933;50.754;11.508;2022-07-26T03:44:03;3.70;;;3.33;;
21543;SDS011;10933;50.754;11.508;2022-07-26T03:46:29;6.38;;;2.85;;
21543;SDS011;10933;50.754;11.508;2022-07-26T03:48:55;2.90;;;2.70;;
21543;SDS011;10933;50.754;11.508;2022-07-26T03:51:21;5.60;;;3.10;;
21543;SDS011;10933;50.754;11.508;2022-07-26T03:53:47;4.00;;;2.75;;
21543;SDS011;10933;50.754;11.508;2022-07-26T03:56:13;3.17;;;2.97;;
21543;SDS011;10933;50.754;11.508;2022-07-26T03:59:02;4.78;;;3.13;;
21543;SDS011;10933;50.754;11.508;2022-07-26T04:01:31;3.60;;;3.30;;
21543;SDS011;10933;50.754;11.508;2022-07-26T04:03:59;4.78;;;3.50;;
21543;SDS011;10933;50.754;11.508;2022-07-26T04:06:25;10.05;;;4.25;;
21543;SDS011;10933;50.754;11.508;2022-07-26T04:08:52;3.78;;;3.47;;
21543;SDS011;10933;50.754;11.508;2022-07-26T04:11:19;3.83;;;3.30;;
21543;SDS011;10933;50.754;11.508;2022-07-26T04:13:45;3.42;;;3.05;;
21543;SDS011;10933;50.754;11.508;2022-07-26T04:16:11;3.80;;;3.47;;
21543;SDS011;10933;50.754;11.508;2022-07-26T04:18:37;7.00;;;3.10;;
21543;SDS011;10933;50.754;11.508;2022-07-26T04:21:02;3.28;;;2.97;;
21543;SDS011;10933;50.754;11.508;2022-07-26T04:23:28;3.03;;;2.83;;
21543;SDS011;10933;50.754;11.508;2022-07-26T04:25:54;5.32;;;3.00;;
21543;SDS011;10933;50.754;11.508;2022-07-26T04:28:20;3.30;;;3.10;;
21543;SDS011;10933;50.754;11.508;2022-07-26T04:30:46;13.07;;;3.72;;
21543;SDS011;10933;50.754;11.508;2022-07-26T04:33:12;7.43;;;3.10;;
21543;SDS011;10933;50.754;11.508;2022-07-26T04:35:37;10.43;;;3.80;;
21543;SDS011;10933;50.754;11.508;2022-07-26T04:38:03;5.32;;;3.30;;
21543;SDS011;10933;50.754;11.508;2022-07-26T04:40:29;6.10;;;3.00;;
21543;SDS011;10933;50.754;11.508;2022-07-26T04:42:57;3.60;;;3.13;;
21543;SDS011;10933;50.754;11.508;2022-07-26T04:45:25;3.63;;;3.00;;
21543;SDS011;10933;50.754;11.508;2022-07-26T04:47:52;5.38;;;3.33;;
21543;SDS011;10933;50.754;11.508;2022-07-26T04:50:18;3.33;;;3.03;;
21543;SDS011;10933;50.754;11.508;2022-07-26T04:52:46;8.35;;;5.78;;
21543;SDS011;10933;50.754;11.508;2022-07-26T04:55:16;4.82;;;3.85;;
21543;SDS011;10933;50.754;11.508;2022-07-26T04:57:43;3.65;;;3.38;;
21543;SDS011;10933;50.754;11.508;2022-07-26T05:00:11;3.10;;;2.90;;
21543;SDS011;10933;50.754;11.508;2022-07-26T05:02:39;2.90;;;2.70;;
21543;SDS011;10933;50.754;11.508;2022-07-26T05:05:05;4.22;;;2.90;;
21543;SDS011;10933;50.754;11.508;2022-07-26T05:07:41;3.40;;;3.20;;
21543;SDS011;10933;50.754;11.508;2022-07-26T05:10:13;16.75;;;15.20;;
21543;SDS011;10933;50.754;11.508;2022-07-26T05:12:41;2.70;;;2.50;;
21543;SDS011;10933;50.754;11.508;2022-07-26T05:15:09;4.28;;;2.70;;
21543;SDS011;10933;50.754;11.508;2022-07-26T05:17:38;10.40;;;2.17;;
21543;SDS011;10933;50.754;11.508;2022-07-26T05:20:06;3.42;;;2.42;;
21543;SDS011;10933;50.754;11.508;2022-07-26T05:22:33;3.10;;;2.80;;
21543;SDS011;10933;50.754;11.508;2022-07-26T05:25:00;4.35;;;2.47;;
21543;SDS011;10933;50.754;11.508;2022-07-26T05:27:28;2.65;;;2.45;;
21543;SDS011;10933;50.754;11.508;2022-07-26T05:29:54;2.88;;;2.65;;
21543;SDS011;10933;50.754;11.508;2022-07-26T05:32:20;2.70;;;2.50;;
21543;SDS011;10933;50.754;11.508;2022-07-26T05:34:47;3.10;;;2.80;;
21543;SDS011;10933;50.754;11.508;2022-07-26T05:37:13;4.40;;;2.65;;
21543;SDS011;10933;50.754;11.508;2022-07-26T05:39:39;3.60;;;2.78;;
21543;SDS011;10933;50.754;11.508;2022-07-26T05:42:05;2.70;;;2.08;;
21543;SDS011;10933;50.754;11.508;2022-07-26T05:44:30;2.53;;;2.33;;
21543;SDS011;10933;50.754;11.508;2022-07-26T05:46:56;2.58;;;2.20;;
21543;SDS011;10933;50.754;11.508;2022-07-26T05:49:22;3.15;;;2.28;;
21543;SDS011;10933;50.754;11.508;2022-07-26T05:51:49;2.05;;;1.95;;
21543;SDS011;10933;50.754;11.508;2022-07-26T05:54:16;1.95;;;1.80;;
21543;SDS011;10933;50.754;11.508;2022-07-26T05:56:44;2.47;;;2.10;;
21543;SDS011;10933;50.754;11.508;2022-07-26T05:59:11;2.65;;;2.03;;
21543;SDS011;10933;50.754;11.508;2022-07-26T06:01:36;2.00;;;1.88;;
21543;SDS011;10933;50.754;11.508;2022-07-26T06:04:02;4.05;;;1.98;;
21543;SDS011;10933;50.754;11.508;2022-07-26T06:06:28;2.13;;;1.92;;
21543;SDS011;10933;50.754;11.508;2022-07-26T06:08:54;1.90;;;1.80;;
21543;SDS011;10933;50.754;11.508;2022-07-26T06:11:20;3.33;;;1.98;;
21543;SDS011;10933;50.754;11.508;2022-07-26T06:13:46;5.35;;;2.05;;
21543;SDS011;10933;50.754;11.508;2022-07-26T06:16:12;2.42;;;1.70;;
21543;SDS011;10933;50.754;11.508;2022-07-26T06:18:38;3.88;;;1.67;;
21543;SDS011;10933;50.754;11.508;2022-07-26T06:21:04;2.65;;;1.30;;
21543;SDS011;10933;50.754;11.508;2022-07-26T06:23:30;5.60;;;1.30;;
21543;SDS011;10933;50.754;11.508;2022-07-26T06:25:56;1.80;;;1.00;;
21543;SDS011;10933;50.754;11.508;2022-07-26T06:28:22;2.88;;;1.05;;
21543;SDS011;10933;50.754;11.508;2022-07-26T06:30:47;3.92;;;1.00;;
21543;SDS011;10933;50.754;11.508;2022-07-26T06:33:13;1.30;;;0.80;;
21543;SDS011;10933;50.754;11.508;2022-07-26T06:35:39;2.70;;;0.98;;
21543;SDS011;10933;50.754;11.508;2022-07-26T06:38:07;1.10;;;0.90;;
21543;SDS011;10933;50.754;11.508;2022-07-26T06:40:33;2.47;;;0.82;;
21543;SDS011;10933;50.754;11.508;2022-07-26T06:42:59;3.15;;;0.70;;
21543;SDS011;10933;50.754;11.508;2022-07-26T06:45:26;1.83;;;0.85;;
21543;SDS011;10933;50.754;11.508;2022-07-26T06:47:52;9.32;;;1.05;;
21543;SDS011;10933;50.754;11.508;2022-07-26T06:50:18;1.77;;;1.00;;
21543;SDS011;10933;50.754;11.508;2022-07-26T06:52:44;1.45;;;0.65;;
21543;SDS011;10933;50.754;11.508;2022-07-26T06:55:10;1.77;;;0.85;;
21543;SDS011;10933;50.754;11.508;2022-07-26T06:57:37;1.38;;;0.70;;
21543;SDS011;10933;50.754;11.508;2022-07-26T07:00:03;4.20;;;0.90;;
21543;SDS011;10933;50.754;11.508;2022-07-26T07:02:32;1.00;;;0.80;;
21543;SDS011;10933;50.754;11.508;2022-07-26T07:04:59;1.00;;;0.60;;
21543;SDS011;10933;50.754;11.508;2022-07-26T07:07:25;1.73;;;0.90;;
21543;SDS011;10933;50.754;11.508;2022-07-26T07:09:51;1.25;;;0.68;;
21543;SDS011;10933;50.754;11.508;2022-07-26T07:12:17;1.88;;;0.60;;
21543;SDS011;10933;50.754;11.508;2022-07-26T07:14:43;1.05;;;0.65;;
21543;SDS011;10933;50.754;11.508;2022-07-26T07:17:09;1.38;;;0.60;;
21543;SDS011;10933;50.754;11.508;2022-07-26T07:19:35;1.00;;;0.70;;
21543;SDS011;10933;50.754;11.508;2022-07-26T07:22:02;1.25;;;0.57;;
21543;SDS011;10933;50.754;11.508;2022-07-26T07:24:35;1.60;;;0.88;;
21543;SDS011;10933;50.754;11.508;2022-07-26T07:27:01;0.80;;;0.43;;
21543;SDS011;10933;50.754;11.508;2022-07-26T07:29:27;2.20;;;0.63;;
21543;SDS011;10933;50.754;11.508;2022-07-26T07:31:53;1.50;;;0.60;;
21543;SDS011;10933;50.754;11.508;2022-07-26T07:34:19;1.30;;;0.57;;
21543;SDS011;10933;50.754;11.508;2022-07-26T07:36:50;0.85;;;0.60;;
21543;SDS011;10933;50.754;11.508;2022-07-26T07:39:17;1.08;;;0.60;;
21543;SDS011;10933;50.754;11.508;2022-07-26T07:41:44;0.65;;;0.50;;
21543;SDS011;10933;50.754;11.508;2022-07-26T07:44:11;1.00;;;0.50;;
21543;SDS011;10933;50.754;11.508;2022-07-26T07:46:37;0.60;;;0.50;;
21543;SDS011;10933;50.754;11.508;2022-07-26T07:49:03;1.05;;;0.45;;
21543;SDS011;10933;50.754;11.508;2022-07-26T07:51:30;4.03;;;0.50;;
21543;SDS011;10933;50.754;11.508;2022-07-26T07:53:57;1.10;;;0.57;;
21543;SDS011;10933;50.754;11.508;2022-07-26T07:56:23;1.55;;;0.60;;
21543;SDS011;10933;50.754;11.508;2022-07-26T07:58:49;1.65;;;0.50;;
21543;SDS011;10933;50.754;11.508;2022-07-26T08:01:15;1.33;;;0.50;;
21543;SDS011;10933;50.754;11.508;2022-07-26T08:03:41;0.90;;;0.50;;
21543;SDS011;10933;50.754;11.508;2022-07-26T08:06:07;1.02;;;0.57;;
21543;SDS011;10933;50.754;11.508;2022-07-26T08:08:34;1.52;;;0.40;;
21543;SDS011;10933;50.754;11.508;2022-07-26T08:11:01;0.85;;;0.30;;
21543;SDS011;10933;50.754;11.508;2022-07-26T08:13:29;1.27;;;0.45;;
21543;SDS011;10933;50.754;11.508;2022-07-26T08:15:55;1.40;;;0.50;;
21543;SDS011;10933;50.754;11.508;2022-07-26T08:18:21;1.30;;;0.65;;
21543;SDS011;10933;50.754;11.508;2022-07-26T08:20:48;2.33;;;1.15;;
21543;SDS011;10933;50.754;11.508;2022-07-26T08:23:15;1.83;;;0.70;;
21543;SDS011;10933;50.754;11.508;2022-07-26T08:25:41;1.02;;;0.50;;
21543;SDS011;10933;50.754;11.508;2022-07-26T08:28:07;0.70;;;0.60;;
21543;SDS011;10933;50.754;11.508;2022-07-26T08:30:33;0.57;;;0.30;;
21543;SDS011;10933;50.754;11.508;2022-07-26T08:32:58;0.50;;;0.30;;
21543;SDS011;10933;50.754;11.508;2022-07-26T08:35:25;0.40;;;0.40;;
21543;SDS011;10933;50.754;11.508;2022-07-26T08:37:53;0.30;;;0.30;;
21543;SDS011;10933;50.754;11.508;2022-07-26T08:40:20;0.85;;;0.40;;
21543;SDS011;10933;50.754;11.508;2022-07-26T08:42:49;0.65;;;0.30;;
21543;SDS011;10933;50.754;11.508;2022-07-26T08:45:24;0.40;;;0.30;;
21543;SDS011;10933;50.754;11.508;2022-07-26T08:47:54;1.15;;;0.50;;
21543;SDS011;10933;50.754;11.508;2022-07-26T08:50:23;0.63;;;0.20;;
21543;SDS011;10933;50.754;11.508;2022-07-26T08:52:51;0.57;;;0.30;;
21543;SDS011;10933;50.754;11.508;2022-07-26T08:55:25;0.30;;;0.30;;
21543;SDS011;10933;50.754;11.508;2022-07-26T08:57:51;1.33;;;0.30;;
21543;SDS011;10933;50.754;11.508;2022-07-26T09:00:18;0.75;;;0.40;;
21543;SDS011;10933;50.754;11.508;2022-07-26T09:02:55;0.57;;;0.30;;
21543;SDS011;10933;50.754;11.508;2022-07-26T09:05:35;0.40;;;0.30;;
21543;SDS011;10933;50.754;11.508;2022-07-26T09:10:51;1.10;;;0.40;;
21543;SDS011;10933;50.754;11.508;2022-07-26T09:13:17;2.55;;;0.50;;
21543;SDS011;10933;50.754;11.508;2022-07-26T09:15:44;2.10;;;0.47;;
21543;SDS011;10933;50.754;11.508;2022-07-26T09:18:26;1.15;;;0.45;;
21543;SDS011;10933;50.754;11.508;2022-07-26T09:20:53;0.45;;;0.32;;
21543;SDS011;10933;50.754;11.508;2022-07-26T09:23:19;1.08;;;0.50;;
21543;SDS011;10933;50.754;11.508;2022-07-26T09:25:45;1.60;;;0.50;;
21543;SDS011;10933;50.754;11.508;2022-07-26T09:28:29;0.52;;;0.50;;
21543;SDS011;10933;50.754;11.508;2022-07-26T09:30:57;0.90;;;0.40;;
21543;SDS011;10933;50.754;11.508;2022-07-26T09:33:42;0.82;;;0.38;;
21543;SDS011;10933;50.754;11.508;2022-07-26T09:36:13;1.70;;;0.40;;
21543;SDS011;10933;50.754;11.508;2022-07-26T09:44:00;4.53;;;0.60;;
21543;SDS011;10933;50.754;11.508;2022-07-26T09:46:50;1.75;;;0.43;;
21543;SDS011;10933;50.754;11.508;2022-07-26T09:49:23;1.95;;;0.30;;
21543;SDS011;10933;50.754;11.508;2022-07-26T09:51:53;0.77;;;0.40;;
21543;SDS011;10933;50.754;11.508;2022-07-26T09:54:29;0.22;;;0.20;;
21543;SDS011;10933;50.754;11.508;2022-07-26T09:56:57;1.92;;;0.40;;
21543;SDS011;10933;50.754;11.508;2022-07-26T09:59:24;0.47;;;0.20;;
21543;SDS011;10933;50.754;11.508;2022-07-26T10:01:53;0.32;;;0.32;;
21543;SDS011;10933;50.754;11.508;2022-07-26T10:04:22;0.50;;;0.43;;
21543;SDS011;10933;50.754;11.508;2022-07-26T10:06:48;0.30;;;0.30;;
21543;SDS011;10933;50.754;11.508;2022-07-26T10:09:15;0.22;;;0.20;;
21543;SDS011;10933;50.754;11.508;2022-07-26T10:19:58;0.35;;;0.30;;
21543;SDS011;10933;50.754;11.508;2022-07-26T10:22:31;0.57;;;0.30;;
21543;SDS011;10933;50.754;11.508;2022-07-26T10:27:43;0.25;;;0.22;;
21543;SDS011;10933;50.754;11.508;2022-07-26T10:32:44;0.85;;;0.30;;
21543;SDS011;10933;50.754;11.508;2022-07-26T10:40:32;1.05;;;0.20;;
21543;SDS011;10933;50.754;11.508;2022-07-26T10:43:09;0.22;;;0.22;;
21543;SDS011;10933;50.754;11.508;2022-07-26T10:45:41;0.25;;;0.25;;
21543;SDS011;10933;50.754;11.508;2022-07-26T10:48:07;2.25;;;0.30;;
21543;SDS011;10933;50.754;11.508;2022-07-26T10:50:36;0.90;;;0.43;;
21543;SDS011;10933;50.754;11.508;2022-07-26T10:53:03;0.35;;;0.30;;
21543;SDS011;10933;50.754;11.508;2022-07-26T10:55:29;0.38;;;0.20;;
21543;SDS011;10933;50.754;11.508;2022-07-26T10:57:55;0.43;;;0.20;;
21543;SDS011;10933;50.754;11.508;2022-07-26T11:00:22;0.60;;;0.13;;
21543;SDS011;10933;50.754;11.508;2022-07-26T11:02:54;0.57;;;0.30;;
21543;SDS011;10933;50.754;11.508;2022-07-26T11:05:23;0.50;;;0.30;;
21543;SDS011;10933;50.754;11.508;2022-07-26T11:07:57;0.20;;;0.20;;
21543;SDS011;10933;50.754;11.508;2022-07-26T11:10:39;0.70;;;0.30;;
21543;SDS011;10933;50.754;11.508;2022-07-26T11:13:19;0.68;;;0.30;;
21543;SDS011;10933;50.754;11.508;2022-07-26T11:15:57;0.57;;;0.30;;
21543;SDS011;10933;50.754;11.508;2022-07-26T11:18:29;0.85;;;0.30;;
21543;SDS011;10933;50.754;11.508;2022-07-26T11:21:09;0.40;;;0.30;;
21543;SDS011;10933;50.754;11.508;2022-07-26T11:23:41;0.47;;;0.38;;
21543;SDS011;10933;50.754;11.508;2022-07-26T11:26:11;0.52;;;0.30;;
21543;SDS011;10933;50.754;11.508;2022-07-26T11:28:59;0.22;;;0.22;;
21543;SDS011;10933;50.754;11.508;2022-07-26T11:31:27;1.65;;;0.40;;
21543;SDS011;10933;50.754;11.508;2022-07-26T11:34:04;0.98;;;0.50;;
21543;SDS011;10933;50.754;11.508;2022-07-26T11:36:41;0.68;;;0.43;;
21543;SDS011;10933;50.754;11.508;2022-07-26T11:39:13;0.82;;;0.40;;
21543;SDS011;10933;50.754;11.508;2022-07-26T11:41:44;1.30;;;0.30;;
21543;SDS011;10933;50.754;11.508;2022-07-26T11:44:14;0.43;;;0.30;;
21543;SDS011;10933;50.754;11.508;2022-07-26T11:46:42;0.50;;;0.43;;
21543;SDS011;10933;50.754;11.508;2022-07-26T11:49:16;0.90;;;0.30;;
21543;SDS011;10933;50.754;11.508;2022-07-26T11:51:49;1.38;;;0.30;;
21543;SDS011;10933;50.754;11.508;2022-07-26T11:54:20;2.25;;;0.30;;
21543;SDS011;10933;50.754;11.508;2022-07-26T11:57:11;0.40;;;0.30;;
21543;SDS011;10933;50.754;11.508;2022-07-26T11:59:37;1.58;;;0.35;;
21543;SDS011;10933;50.754;11.508;2022-07-26T12:02:05;1.50;;;0.30;;
21543;SDS011;10933;50.754;11.508;2022-07-26T12:04:37;0.47;;;0.40;;
21543;SDS011;10933;50.754;11.508;2022-07-26T12:07:09;0.82;;;0.35;;
21543;SDS011;10933;50.754;11.508;2022-07-26T12:09:41;1.23;;;0.50;;
21543;SDS011;10933;50.754;11.508;2022-07-26T12:12:22;1.15;;;0.40;;
21543;SDS011;10933;50.754;11.508;2022-07-26T12:14:57;1.38;;;0.52;;
21543;SDS011;10933;50.754;11.508;2022-07-26T12:17:26;1.98;;;0.40;;
21543;SDS011;10933;50.754;11.508;2022-07-26T12:19:53;0.80;;;0.40;;
21543;SDS011;10933;50.754;11.508;2022-07-26T12:22:20;0.35;;;0.35;;
21543;SDS011;10933;50.754;11.508;2022-07-26T12:32:35;0.57;;;0.57;;
21543;SDS011;10933;50.754;11.508;2022-07-26T12:35:11;2.45;;;0.50;;
21543;SDS011;10933;50.754;11.508;2022-07-26T12:40:14;1.00;;;0.68;;
21543;SDS011;10933;50.754;11.508;2022-07-26T12:42:43;0.40;;;0.40;;
21543;SDS011;10933;50.754;11.508;2022-07-26T12:45:29;1.50;;;0.50;;
21543;SDS011;10933;50.754;11.508;2022-07-26T12:47:57;1.83;;;0.68;;
21543;SDS011;10933;50.754;11.508;2022-07-26T12:50:25;1.75;;;0.50;;
21543;SDS011;10933;50.754;11.508;2022-07-26T12:52:59;1.25;;;0.55;;
21543;SDS011;10933;50.754;11.508;2022-07-26T12:55:28;2.45;;;0.63;;
21543;SDS011;10933;50.754;11.508;2022-07-26T12:57:54;0.88;;;0.40;;
21543;SDS011;10933;50.754;11.508;2022-07-26T13:00:20;1.05;;;0.57;;
21543;SDS011;10933;50.754;11.508;2022-07-26T13:02:46;1.45;;;0.57;;
21543;SDS011;10933;50.754;11.508;2022-07-26T13:05:13;1.02;;;0.50;;
21543;SDS011;10933;50.754;11.508;2022-07-26T13:07:39;1.00;;;0.50;;
21543;SDS011;10933;50.754;11.508;2022-07-26T13:10:06;0.90;;;0.57;;
21543;SDS011;10933;50.754;11.508;2022-07-26T13:12:34;1.27;;;0.50;;
21543;SDS011;10933;50.754;11.508;2022-07-26T13:15:01;1.95;;;0.50;;
21543;SDS011;10933;50.754;11.508;2022-07-26T13:17:29;1.95;;;0.60;;
21543;SDS011;10933;50.754;11.508;2022-07-26T13:19:55;3.30;;;0.50;;
21543;SDS011;10933;50.754;11.508;2022-07-26T13:22:21;2.15;;;0.70;;
21543;SDS011;10933;50.754;11.508;2022-07-26T13:24:47;1.60;;;0.90;;
21543;SDS011;10933;50.754;11.508;2022-07-26T13:27:13;0.77;;;0.65;;
21543;SDS011;10933;50.754;11.508;2022-07-26T13:29:38;1.23;;;0.60;;
21543;SDS011;10933;50.754;11.508;2022-07-26T13:32:04;1.48;;;0.50;;
21543;SDS011;10933;50.754;11.508;2022-07-26T13:34:30;0.68;;;0.60;;
21543;SDS011;10933;50.754;11.508;2022-07-26T13:36:57;3.65;;;0.70;;
21543;SDS011;10933;50.754;11.508;2022-07-26T13:39:23;0.70;;;0.70;;
21543;SDS011;10933;50.754;11.508;2022-07-26T13:41:51;0.80;;;0.60;;
21543;SDS011;10933;50.754;11.508;2022-07-26T13:44:18;2.45;;;0.80;;
21543;SDS011;10933;50.754;11.508;2022-07-26T13:46:44;0.98;;;0.70;;
21543;SDS011;10933;50.754;11.508;2022-07-26T13:49:10;1.63;;;0.57;;
21543;SDS011;10933;50.754;11.508;2022-07-26T13:51:36;2.05;;;0.55;;
21543;SDS011;10933;50.754;11.508;2022-07-26T13:54:22;2.55;;;0.70;;
21543;SDS011;10933;50.754;11.508;2022-07-26T13:56:51;0.80;;;0.50;;
21543;SDS011;10933;50.754;11.508;2022-07-26T13:59:17;0.50;;;0.40;;
21543;SDS011;10933;50.754;11.508;2022-07-26T14:01:43;0.45;;;0.40;;
21543;SDS011;10933;50.754;11.508;2022-07-26T14:04:09;0.52;;;0.40;;
21543;SDS011;10933;50.754;11.508;2022-07-26T14:06:36;0.70;;;0.40;;
21543;SDS011;10933;50.754;11.508;2022-07-26T14:09:03;2.30;;;0.50;;
21543;SDS011;10933;50.754;11.508;2022-07-26T14:11:30;1.95;;;0.60;;
21543;SDS011;10933;50.754;11.508;2022-07-26T14:13:56;0.95;;;0.50;;
21543;SDS011;10933;50.754;11.508;2022-07-26T14:16:22;0.68;;;0.60;;
21543;SDS011;10933;50.754;11.508;2022-07-26T14:18:51;0.40;;;0.40;;
21543;SDS011;10933;50.754;11.508;2022-07-26T14:21:22;0.65;;;0.60;;
21543;SDS011;10933;50.754;11.508;2022-07-26T14:23:49;0.55;;;0.50;;
21543;SDS011;10933;50.754;11.508;2022-07-26T14:26:15;1.80;;;0.60;;
21543;SDS011;10933;50.754;11.508;2022-07-26T14:28:41;1.73;;;0.55;;
21543;SDS011;10933;50.754;11.508;2022-07-26T14:31:08;0.60;;;0.60;;
21543;SDS011;10933;50.754;11.508;2022-07-26T14:33:34;0.60;;;0.60;;
21543;SDS011;10933;50.754;11.508;2022-07-26T14:36:00;3.22;;;0.65;;
21543;SDS011;10933;50.754;11.508;2022-07-26T14:38:26;0.88;;;0.57;;
21543;SDS011;10933;50.754;11.508;2022-07-26T14:40:53;3.38;;;0.70;;
21543;SDS011;10933;50.754;11.508;2022-07-26T14:43:21;0.50;;;0.50;;
21543;SDS011;10933;50.754;11.508;2022-07-26T14:45:47;4.10;;;0.60;;
21543;SDS011;10933;50.754;11.508;2022-07-26T14:48:13;0.60;;;0.50;;
21543;SDS011;10933;50.754;11.508;2022-07-26T14:50:39;0.98;;;0.50;;
21543;SDS011;10933;50.754;11.508;2022-07-26T14:53:05;0.55;;;0.55;;
21543;SDS011;10933;50.754;11.508;2022-07-26T14:55:32;0.40;;;0.40;;
21543;SDS011;10933;50.754;11.508;2022-07-26T14:57:57;1.02;;;0.47;;
21543;SDS011;10933;50.754;11.508;2022-07-26T15:00:23;0.80;;;0.70;;
21543;SDS011;10933;50.754;11.508;2022-07-26T15:02:49;0.40;;;0.40;;
21543;SDS011;10933;50.754;11.508;2022-07-26T15:05:15;0.60;;;0.60;;
21543;SDS011;10933;50.754;11.508;2022-07-26T15:07:42;1.95;;;0.50;;
21543;SDS011;10933;50.754;11.508;2022-07-26T15:10:09;0.80;;;0.80;;
21543;SDS011;10933;50.754;11.508;2022-07-26T15:12:37;0.50;;;0.50;;
21543;SDS011;10933;50.754;11.508;2022-07-26T15:15:04;0.93;;;0.60;;